Terminal Aerodrome Forecast
Issued by NWS

Home | Current Version | Previous Version | Text Only | Print | Product List | Glossary On
Versions: 1 2 3 4 5 6 7 8 9 10 11 12 13 14 15 16 17 18 19 20 21 22
000
FTUS43 KILX 211100
TAFCMI
TAF
KCMI 211125Z 2112/2212 22008KT P6SM SCT060 BKN250
     FM211500 23010KT P6SM SCT060 BKN120
     FM212100 22010KT P6SM SCT060
     FM220200 18006KT P6SM BKN150
     FM220600 21007KT P6SM VCTS BKN060CB=

USA.gov is the U.S. government's official web portal to all federal, state and local government web resources and services.